sensor_id;sensor_type;location;lat;lon;timestamp;temperature;humidity
19152;DHT22;9708;53.114;9.388;2022-10-03T00:01:18;11.10;99.90
19152;DHT22;9708;53.114;9.388;2022-10-03T00:03:54;11.10;99.90
19152;DHT22;9708;53.114;9.388;2022-10-03T00:06:30;11.00;99.90
19152;DHT22;9708;53.114;9.388;2022-10-03T00:09:29;11.00;99.90
19152;DHT22;9708;53.114;9.388;2022-10-03T00:12:09;11.00;99.90
19152;DHT22;9708;53.114;9.388;2022-10-03T00:14:47;11.00;99.90
19152;DHT22;9708;53.114;9.388;2022-10-03T00:17:24;11.00;99.90
19152;DHT22;9708;53.114;9.388;2022-10-03T00:20:01;10.90;99.90
19152;DHT22;9708;53.114;9.388;2022-10-03T00:22:35;10.90;99.90
19152;DHT22;9708;53.114;9.388;2022-10-03T00:25:24;10.90;99.90
19152;DHT22;9708;53.114;9.388;2022-10-03T00:28:08;10.90;99.90
19152;DHT22;9708;53.114;9.388;2022-10-03T00:30:48;10.80;99.90
19152;DHT22;9708;53.114;9.388;2022-10-03T00:33:28;10.80;99.90
19152;DHT22;9708;53.114;9.388;2022-10-03T00:36:03;10.70;99.90
19152;DHT22;9708;53.114;9.388;2022-10-03T00:38:53;10.70;99.90
19152;DHT22;9708;53.114;9.388;2022-10-03T00:41:38;10.70;99.90
19152;DHT22;9708;53.114;9.388;2022-10-03T00:44:35;10.70;99.90
19152;DHT22;9708;53.114;9.388;2022-10-03T00:47:30;10.70;99.90
19152;DHT22;9708;53.114;9.388;2022-10-03T00:50:10;10.70;99.90
19152;DHT22;9708;53.114;9.388;2022-10-03T00:53:00;10.70;99.90
19152;DHT22;9708;53.114;9.388;2022-10-03T00:55:37;10.60;99.90
19152;DHT22;9708;53.114;9.388;2022-10-03T00:58:22;10.60;99.90
19152;DHT22;9708;53.114;9.388;2022-10-03T01:00:57;10.60;99.90
19152;DHT22;9708;53.114;9.388;2022-10-03T01:03:36;10.70;99.90
19152;DHT22;9708;53.114;9.388;2022-10-03T01:06:17;10.70;99.90
19152;DHT22;9708;53.114;9.388;2022-10-03T01:09:02;10.70;99.90
19152;DHT22;9708;53.114;9.388;2022-10-03T01:11:40;10.70;99.90
19152;DHT22;9708;53.114;9.388;2022-10-03T01:14:26;10.60;99.90
19152;DHT22;9708;53.114;9.388;2022-10-03T01:17:04;10.60;99.90
19152;DHT22;9708;53.114;9.388;2022-10-03T01:25:37;10.60;99.90
19152;DHT22;9708;53.114;9.388;2022-10-03T01:28:20;10.70;99.90
19152;DHT22;9708;53.114;9.388;2022-10-03T01:31:16;10.70;99.90
19152;DHT22;9708;53.114;9.388;2022-10-03T01:33:49;10.80;99.90
19152;DHT22;9708;53.114;9.388;2022-10-03T01:36:27;10.80;99.90
19152;DHT22;9708;53.114;9.388;2022-10-03T01:39:00;10.90;99.90
19152;DHT22;9708;53.114;9.388;2022-10-03T01:41:33;11.00;99.90
19152;DHT22;9708;53.114;9.388;2022-10-03T01:44:10;10.90;99.90
19152;DHT22;9708;53.114;9.388;2022-10-03T01:46:41;10.90;99.90
19152;DHT22;9708;53.114;9.388;2022-10-03T01:49:18;10.90;99.90
19152;DHT22;9708;53.114;9.388;2022-10-03T01:51:53;10.80;99.90
19152;DHT22;9708;53.114;9.388;2022-10-03T01:54:25;10.90;99.90
19152;DHT22;9708;53.114;9.388;2022-10-03T01:56:59;10.80;99.90
19152;DHT22;9708;53.114;9.388;2022-10-03T01:59:34;10.80;99.90
19152;DHT22;9708;53.114;9.388;2022-10-03T02:02:09;10.70;99.90
19152;DHT22;9708;53.114;9.388;2022-10-03T02:04:44;10.70;99.90
19152;DHT22;9708;53.114;9.388;2022-10-03T02:07:22;10.70;99.90
19152;DHT22;9708;53.114;9.388;2022-10-03T02:09:58;10.70;99.90
19152;DHT22;9708;53.114;9.388;2022-10-03T02:12:30;10.70;99.90
19152;DHT22;9708;53.114;9.388;2022-10-03T02:15:09;10.60;99.90
19152;DHT22;9708;53.114;9.388;2022-10-03T02:17:45;10.70;99.90
19152;DHT22;9708;53.114;9.388;2022-10-03T02:20:23;10.70;99.90
19152;DHT22;9708;53.114;9.388;2022-10-03T02:22:52;10.60;99.90
19152;DHT22;9708;53.114;9.388;2022-10-03T02:25:35;10.60;99.90
19152;DHT22;9708;53.114;9.388;2022-10-03T02:28:31;10.60;99.90
19152;DHT22;9708;53.114;9.388;2022-10-03T02:31:24;10.60;99.90
19152;DHT22;9708;53.114;9.388;2022-10-03T02:34:14;10.60;99.90
19152;DHT22;9708;53.114;9.388;2022-10-03T02:45:53;10.60;99.90
19152;DHT22;9708;53.114;9.388;2022-10-03T02:48:57;10.60;99.90
19152;DHT22;9708;53.114;9.388;2022-10-03T02:51:57;10.60;99.90
19152;DHT22;9708;53.114;9.388;2022-10-03T02:57:49;10.60;99.90
19152;DHT22;9708;53.114;9.388;2022-10-03T03:00:21;10.50;99.90
19152;DHT22;9708;53.114;9.388;2022-10-03T03:06:25;10.50;99.90
19152;DHT22;9708;53.114;9.388;2022-10-03T03:09:21;10.60;99.90
19152;DHT22;9708;53.114;9.388;2022-10-03T03:15:22;10.60;99.90
19152;DHT22;9708;53.114;9.388;2022-10-03T03:18:01;10.60;99.90
19152;DHT22;9708;53.114;9.388;2022-10-03T03:20:42;10.50;99.90
19152;DHT22;9708;53.114;9.388;2022-10-03T03:23:42;10.50;99.90
19152;DHT22;9708;53.114;9.388;2022-10-03T03:26:30;10.60;99.90
19152;DHT22;9708;53.114;9.388;2022-10-03T03:29:03;10.50;99.90
19152;DHT22;9708;53.114;9.388;2022-10-03T03:31:43;10.60;99.90
19152;DHT22;9708;53.114;9.388;2022-10-03T03:34:17;10.60;99.90
19152;DHT22;9708;53.114;9.388;2022-10-03T03:36:52;10.70;99.90
19152;DHT22;9708;53.114;9.388;2022-10-03T03:39:37;10.70;99.90
19152;DHT22;9708;53.114;9.388;2022-10-03T03:42:32;10.80;99.90
19152;DHT22;9708;53.114;9.388;2022-10-03T03:45:07;10.90;99.90
19152;DHT22;9708;53.114;9.388;2022-10-03T03:47:53;11.00;99.90
19152;DHT22;9708;53.114;9.388;2022-10-03T03:50:32;11.00;99.90
19152;DHT22;9708;53.114;9.388;2022-10-03T03:53:23;11.00;99.90
19152;DHT22;9708;53.114;9.388;2022-10-03T03:56:11;11.00;99.90
19152;DHT22;9708;53.114;9.388;2022-10-03T03:58:50;11.00;99.90
19152;DHT22;9708;53.114;9.388;2022-10-03T04:01:43;10.90;99.90
19152;DHT22;9708;53.114;9.388;2022-10-03T04:04:22;10.90;99.90
19152;DHT22;9708;53.114;9.388;2022-10-03T04:06:59;10.80;99.90
19152;DHT22;9708;53.114;9.388;2022-10-03T04:15:59;10.60;99.90
19152;DHT22;9708;53.114;9.388;2022-10-03T04:18:53;10.60;99.90
19152;DHT22;9708;53.114;9.388;2022-10-03T04:21:38;10.50;99.90
19152;DHT22;9708;53.114;9.388;2022-10-03T04:30:10;10.50;99.90
19152;DHT22;9708;53.114;9.388;2022-10-03T04:33:05;10.50;99.90
19152;DHT22;9708;53.114;9.388;2022-10-03T04:38:54;10.50;99.90
19152;DHT22;9708;53.114;9.388;2022-10-03T04:41:30;10.40;99.90
19152;DHT22;9708;53.114;9.388;2022-10-03T04:44:10;10.50;99.90
19152;DHT22;9708;53.114;9.388;2022-10-03T04:46:49;10.40;99.90
19152;DHT22;9708;53.114;9.388;2022-10-03T04:49:22;10.40;99.90
19152;DHT22;9708;53.114;9.388;2022-10-03T04:51:55;10.40;99.90
19152;DHT22;9708;53.114;9.388;2022-10-03T04:54:29;10.40;99.90
19152;DHT22;9708;53.114;9.388;2022-10-03T04:57:06;10.40;99.90
19152;DHT22;9708;53.114;9.388;2022-10-03T04:59:45;10.40;99.90
19152;DHT22;9708;53.114;9.388;2022-10-03T05:02:26;10.40;99.90
19152;DHT22;9708;53.114;9.388;2022-10-03T05:05:17;10.30;99.90
19152;DHT22;9708;53.114;9.388;2022-10-03T05:07:52;10.40;99.90
19152;DHT22;9708;53.114;9.388;2022-10-03T05:10:29;10.30;99.90
19152;DHT22;9708;53.114;9.388;2022-10-03T05:13:04;10.30;99.90
19152;DHT22;9708;53.114;9.388;2022-10-03T05:15:43;10.30;99.90
19152;DHT22;9708;53.114;9.388;2022-10-03T05:18:18;10.30;99.90
19152;DHT22;9708;53.114;9.388;2022-10-03T05:20:53;10.30;99.90
19152;DHT22;9708;53.114;9.388;2022-10-03T05:23:31;10.30;99.90
19152;DHT22;9708;53.114;9.388;2022-10-03T05:26:05;10.30;99.90
19152;DHT22;9708;53.114;9.388;2022-10-03T05:28:40;10.30;99.90
19152;DHT22;9708;53.114;9.388;2022-10-03T05:31:28;10.30;99.90
19152;DHT22;9708;53.114;9.388;2022-10-03T05:34:02;10.30;99.90
19152;DHT22;9708;53.114;9.388;2022-10-03T05:36:50;10.40;99.90
19152;DHT22;9708;53.114;9.388;2022-10-03T05:39:26;10.40;99.90
19152;DHT22;9708;53.114;9.388;2022-10-03T05:42:03;10.40;99.90
19152;DHT22;9708;53.114;9.388;2022-10-03T05:44:41;10.40;99.90
19152;DHT22;9708;53.114;9.388;2022-10-03T05:47:10;10.40;99.90
19152;DHT22;9708;53.114;9.388;2022-10-03T05:50:22;10.40;99.90
19152;DHT22;9708;53.114;9.388;2022-10-03T05:53:04;10.50;99.90
19152;DHT22;9708;53.114;9.388;2022-10-03T05:55:44;10.50;99.90
19152;DHT22;9708;53.114;9.388;2022-10-03T05:58:51;10.50;99.90
19152;DHT22;9708;53.114;9.388;2022-10-03T06:01:37;10.50;99.90
19152;DHT22;9708;53.114;9.388;2022-10-03T06:07:30;10.60;99.90
19152;DHT22;9708;53.114;9.388;2022-10-03T06:10:32;10.60;99.90
19152;DHT22;9708;53.114;9.388;2022-10-03T06:13:19;10.70;99.90
19152;DHT22;9708;53.114;9.388;2022-10-03T06:15:52;10.70;99.90
19152;DHT22;9708;53.114;9.388;2022-10-03T06:18:48;10.70;99.90
19152;DHT22;9708;53.114;9.388;2022-10-03T06:21:31;10.80;99.90
19152;DHT22;9708;53.114;9.388;2022-10-03T06:24:24;10.70;99.90
19152;DHT22;9708;53.114;9.388;2022-10-03T06:27:27;10.80;99.90
19152;DHT22;9708;53.114;9.388;2022-10-03T06:33:36;10.90;99.90
19152;DHT22;9708;53.114;9.388;2022-10-03T06:36:23;11.00;99.90
19152;DHT22;9708;53.114;9.388;2022-10-03T06:39:33;11.10;99.90
19152;DHT22;9708;53.114;9.388;2022-10-03T06:42:30;11.20;99.90
19152;DHT22;9708;53.114;9.388;2022-10-03T06:45:31;11.30;99.90
19152;DHT22;9708;53.114;9.388;2022-10-03T06:48:23;11.30;99.90
19152;DHT22;9708;53.114;9.388;2022-10-03T06:51:00;11.50;99.90
19152;DHT22;9708;53.114;9.388;2022-10-03T06:53:58;11.80;99.90
19152;DHT22;9708;53.114;9.388;2022-10-03T06:56:47;12.30;99.90
19152;DHT22;9708;53.114;9.388;2022-10-03T07:08:47;13.40;99.90
19152;DHT22;9708;53.114;9.388;2022-10-03T07:11:37;13.20;99.90
19152;DHT22;9708;53.114;9.388;2022-10-03T07:14:41;13.10;99.90
19152;DHT22;9708;53.114;9.388;2022-10-03T07:17:33;13.00;99.90
19152;DHT22;9708;53.114;9.388;2022-10-03T07:23:26;12.90;99.90
19152;DHT22;9708;53.114;9.388;2022-10-03T07:26:23;13.20;99.90
19152;DHT22;9708;53.114;9.388;2022-10-03T07:29:18;13.60;99.90
19152;DHT22;9708;53.114;9.388;2022-10-03T07:32:02;13.80;99.90
19152;DHT22;9708;53.114;9.388;2022-10-03T07:34:52;13.80;99.90
19152;DHT22;9708;53.114;9.388;2022-10-03T07:37:45;13.80;99.90
19152;DHT22;9708;53.114;9.388;2022-10-03T07:47:37;13.60;99.90
19152;DHT22;9708;53.114;9.388;2022-10-03T07:53:19;13.10;99.90
19152;DHT22;9708;53.114;9.388;2022-10-03T07:55:59;12.90;99.90
19152;DHT22;9708;53.114;9.388;2022-10-03T07:58:50;12.90;99.90
19152;DHT22;9708;53.114;9.388;2022-10-03T08:01:56;12.90;99.90
19152;DHT22;9708;53.114;9.388;2022-10-03T08:05:06;13.00;99.90
19152;DHT22;9708;53.114;9.388;2022-10-03T08:07:59;13.00;99.90
19152;DHT22;9708;53.114;9.388;2022-10-03T08:14:00;13.20;99.90
19152;DHT22;9708;53.114;9.388;2022-10-03T08:17:00;13.30;99.90
19152;DHT22;9708;53.114;9.388;2022-10-03T08:20:02;13.40;99.90
19152;DHT22;9708;53.114;9.388;2022-10-03T08:22:43;13.70;99.90
19152;DHT22;9708;53.114;9.388;2022-10-03T08:25:23;14.10;99.90
19152;DHT22;9708;53.114;9.388;2022-10-03T08:28:23;14.40;99.90
19152;DHT22;9708;53.114;9.388;2022-10-03T08:31:25;14.90;99.90
19152;DHT22;9708;53.114;9.388;2022-10-03T08:37:13;16.10;99.90
19152;DHT22;9708;53.114;9.388;2022-10-03T08:39:57;16.70;99.90
19152;DHT22;9708;53.114;9.388;2022-10-03T08:42:57;17.10;99.90
19152;DHT22;9708;53.114;9.388;2022-10-03T08:45:51;17.50;99.90
19152;DHT22;9708;53.114;9.388;2022-10-03T08:52:11;17.80;99.90
19152;DHT22;9708;53.114;9.388;2022-10-03T08:55:06;18.10;99.90
19152;DHT22;9708;53.114;9.388;2022-10-03T09:01:07;18.20;99.90
19152;DHT22;9708;53.114;9.388;2022-10-03T09:04:18;17.20;99.90
19152;DHT22;9708;53.114;9.388;2022-10-03T09:10:26;17.90;99.90
19152;DHT22;9708;53.114;9.388;2022-10-03T09:13:10;18.60;99.90
19152;DHT22;9708;53.114;9.388;2022-10-03T09:16:08;19.10;99.90
19152;DHT22;9708;53.114;9.388;2022-10-03T09:18:52;18.70;99.90
19152;DHT22;9708;53.114;9.388;2022-10-03T09:21:46;18.90;99.90
19152;DHT22;9708;53.114;9.388;2022-10-03T09:27:39;19.10;99.90
19152;DHT22;9708;53.114;9.388;2022-10-03T09:30:20;19.60;99.90
19152;DHT22;9708;53.114;9.388;2022-10-03T09:39:11;17.90;99.90
19152;DHT22;9708;53.114;9.388;2022-10-03T09:41:58;17.00;99.90
19152;DHT22;9708;53.114;9.388;2022-10-03T09:44:43;16.80;99.90
19152;DHT22;9708;53.114;9.388;2022-10-03T09:51:01;16.70;99.90
19152;DHT22;9708;53.114;9.388;2022-10-03T09:57:01;16.90;99.90
19152;DHT22;9708;53.114;9.388;2022-10-03T09:59:56;17.10;99.90
19152;DHT22;9708;53.114;9.388;2022-10-03T10:09:00;17.70;99.90
19152;DHT22;9708;53.114;9.388;2022-10-03T10:11:35;17.50;99.90
19152;DHT22;9708;53.114;9.388;2022-10-03T10:14:23;17.10;99.90
19152;DHT22;9708;53.114;9.388;2022-10-03T10:17:36;17.20;99.90
19152;DHT22;9708;53.114;9.388;2022-10-03T10:23:25;17.50;99.90
19152;DHT22;9708;53.114;9.388;2022-10-03T10:29:25;18.10;99.90
19152;DHT22;9708;53.114;9.388;2022-10-03T10:38:29;17.30;99.90
19152;DHT22;9708;53.114;9.388;2022-10-03T10:41:33;17.10;99.90
19152;DHT22;9708;53.114;9.388;2022-10-03T10:47:54;16.70;99.90
19152;DHT22;9708;53.114;9.388;2022-10-03T10:54:09;16.90;99.90
19152;DHT22;9708;53.114;9.388;2022-10-03T10:57:20;16.70;99.90
19152;DHT22;9708;53.114;9.388;2022-10-03T11:25:06;19.40;99.90
19152;DHT22;9708;53.114;9.388;2022-10-03T11:31:24;18.30;99.90
19152;DHT22;9708;53.114;9.388;2022-10-03T11:37:28;17.70;99.90
19152;DHT22;9708;53.114;9.388;2022-10-03T11:40:09;18.10;99.90
19152;DHT22;9708;53.114;9.388;2022-10-03T11:42:49;18.60;99.90
19152;DHT22;9708;53.114;9.388;2022-10-03T11:45:25;18.70;99.90
19152;DHT22;9708;53.114;9.388;2022-10-03T11:50:48;18.70;99.90
19152;DHT22;9708;53.114;9.388;2022-10-03T11:53:31;18.40;99.90
19152;DHT22;9708;53.114;9.388;2022-10-03T11:56:18;18.60;99.90
19152;DHT22;9708;53.114;9.388;2022-10-03T11:58:59;19.00;99.90
19152;DHT22;9708;53.114;9.388;2022-10-03T12:01:42;19.70;99.90
19152;DHT22;9708;53.114;9.388;2022-10-03T12:04:19;19.90;99.90
19152;DHT22;9708;53.114;9.388;2022-10-03T12:06:56;19.70;99.90
19152;DHT22;9708;53.114;9.388;2022-10-03T12:09:53;19.40;99.90
19152;DHT22;9708;53.114;9.388;2022-10-03T12:12:27;19.00;99.90
19152;DHT22;9708;53.114;9.388;2022-10-03T12:15:02;18.90;99.90
19152;DHT22;9708;53.114;9.388;2022-10-03T12:17:32;19.10;99.90
19152;DHT22;9708;53.114;9.388;2022-10-03T12:20:08;19.50;99.90
19152;DHT22;9708;53.114;9.388;2022-10-03T12:22:44;19.10;99.90
19152;DHT22;9708;53.114;9.388;2022-10-03T12:25:20;18.60;99.90
19152;DHT22;9708;53.114;9.388;2022-10-03T12:27:55;18.70;99.90
19152;DHT22;9708;53.114;9.388;2022-10-03T12:30:24;19.10;99.90
19152;DHT22;9708;53.114;9.388;2022-10-03T12:33:08;19.40;99.90
19152;DHT22;9708;53.114;9.388;2022-10-03T12:35:43;19.50;99.90
19152;DHT22;9708;53.114;9.388;2022-10-03T12:38:29;19.70;99.90
19152;DHT22;9708;53.114;9.388;2022-10-03T12:41:10;19.00;99.90
19152;DHT22;9708;53.114;9.388;2022-10-03T12:43:52;18.50;99.90
19152;DHT22;9708;53.114;9.388;2022-10-03T12:46:29;18.70;99.90
19152;DHT22;9708;53.114;9.388;2022-10-03T12:49:02;18.40;99.90
19152;DHT22;9708;53.114;9.388;2022-10-03T12:51:46;18.50;99.90
19152;DHT22;9708;53.114;9.388;2022-10-03T13:00:15;18.60;99.90
19152;DHT22;9708;53.114;9.388;2022-10-03T13:02:54;18.60;99.90
19152;DHT22;9708;53.114;9.388;2022-10-03T13:05:37;18.60;99.90
19152;DHT22;9708;53.114;9.388;2022-10-03T13:08:17;18.40;99.90
19152;DHT22;9708;53.114;9.388;2022-10-03T13:10:55;18.40;99.90
19152;DHT22;9708;53.114;9.388;2022-10-03T13:13:30;18.70;99.90
19152;DHT22;9708;53.114;9.388;2022-10-03T13:16:16;18.80;99.90
19152;DHT22;9708;53.114;9.388;2022-10-03T13:18:49;18.70;99.90
19152;DHT22;9708;53.114;9.388;2022-10-03T13:21:22;18.60;99.90
19152;DHT22;9708;53.114;9.388;2022-10-03T13:23:58;18.50;99.90
19152;DHT22;9708;53.114;9.388;2022-10-03T13:26:41;18.40;99.90
19152;DHT22;9708;53.114;9.388;2022-10-03T13:29:18;18.40;99.90
19152;DHT22;9708;53.114;9.388;2022-10-03T13:32:08;18.20;99.90
19152;DHT22;9708;53.114;9.388;2022-10-03T13:38:15;17.80;99.90
19152;DHT22;9708;53.114;9.388;2022-10-03T13:40:48;17.40;99.90
19152;DHT22;9708;53.114;9.388;2022-10-03T13:43:25;17.20;99.90
19152;DHT22;9708;53.114;9.388;2022-10-03T13:45:53;17.30;99.90
19152;DHT22;9708;53.114;9.388;2022-10-03T13:48:24;17.60;99.90
19152;DHT22;9708;53.114;9.388;2022-10-03T13:50:55;17.70;99.90
19152;DHT22;9708;53.114;9.388;2022-10-03T13:53:41;17.70;99.90
19152;DHT22;9708;53.114;9.388;2022-10-03T13:56:14;17.60;99.90
19152;DHT22;9708;53.114;9.388;2022-10-03T13:58:49;17.50;99.90
19152;DHT22;9708;53.114;9.388;2022-10-03T14:01:30;17.50;99.90
19152;DHT22;9708;53.114;9.388;2022-10-03T14:04:35;17.30;99.90
19152;DHT22;9708;53.114;9.388;2022-10-03T14:07:17;17.20;99.90
19152;DHT22;9708;53.114;9.388;2022-10-03T14:10:08;17.10;99.90
19152;DHT22;9708;53.114;9.388;2022-10-03T14:12:50;17.00;99.90
19152;DHT22;9708;53.114;9.388;2022-10-03T14:15:40;17.10;99.90
19152;DHT22;9708;53.114;9.388;2022-10-03T14:18:17;17.20;99.90
19152;DHT22;9708;53.114;9.388;2022-10-03T14:21:26;17.20;99.90
19152;DHT22;9708;53.114;9.388;2022-10-03T14:24:04;17.30;99.90
19152;DHT22;9708;53.114;9.388;2022-10-03T14:26:38;17.30;99.90
19152;DHT22;9708;53.114;9.388;2022-10-03T14:29:17;17.20;99.90
19152;DHT22;9708;53.114;9.388;2022-10-03T14:31:53;17.20;99.90
19152;DHT22;9708;53.114;9.388;2022-10-03T14:34:34;17.10;99.90
19152;DHT22;9708;53.114;9.388;2022-10-03T14:37:11;17.10;99.90
19152;DHT22;9708;53.114;9.388;2022-10-03T14:39:51;17.10;99.90
19152;DHT22;9708;53.114;9.388;2022-10-03T14:42:31;17.30;99.90
19152;DHT22;9708;53.114;9.388;2022-10-03T14:45:06;17.20;99.90
19152;DHT22;9708;53.114;9.388;2022-10-03T14:47:36;17.20;99.90
19152;DHT22;9708;53.114;9.388;2022-10-03T14:50:05;17.10;99.90
19152;DHT22;9708;53.114;9.388;2022-10-03T14:52:37;17.00;99.90
19152;DHT22;9708;53.114;9.388;2022-10-03T14:55:11;17.10;99.90
19152;DHT22;9708;53.114;9.388;2022-10-03T14:57:43;16.90;99.90
19152;DHT22;9708;53.114;9.388;2022-10-03T15:00:24;16.90;99.90
19152;DHT22;9708;53.114;9.388;2022-10-03T15:02:52;17.00;99.90
19152;DHT22;9708;53.114;9.388;2022-10-03T15:05:21;17.00;99.90
19152;DHT22;9708;53.114;9.388;2022-10-03T15:07:56;17.00;99.90
19152;DHT22;9708;53.114;9.388;2022-10-03T15:10:25;16.90;99.90
19152;DHT22;9708;53.114;9.388;2022-10-03T15:12:56;16.80;99.90
19152;DHT22;9708;53.114;9.388;2022-10-03T15:15:28;16.70;99.90
19152;DHT22;9708;53.114;9.388;2022-10-03T15:17:57;16.70;99.90
19152;DHT22;9708;53.114;9.388;2022-10-03T15:20:26;16.60;99.90
19152;DHT22;9708;53.114;9.388;2022-10-03T15:22:56;16.60;99.90
19152;DHT22;9708;53.114;9.388;2022-10-03T15:25:26;16.50;99.90
19152;DHT22;9708;53.114;9.388;2022-10-03T15:27:56;16.50;99.90
19152;DHT22;9708;53.114;9.388;2022-10-03T15:30:30;16.40;99.90
19152;DHT22;9708;53.114;9.388;2022-10-03T15:33:05;16.50;99.90
19152;DHT22;9708;53.114;9.388;2022-10-03T15:35:35;16.50;99.90
19152;DHT22;9708;53.114;9.388;2022-10-03T15:38:09;16.50;99.90
19152;DHT22;9708;53.114;9.388;2022-10-03T15:40:43;16.40;99.90
19152;DHT22;9708;53.114;9.388;2022-10-03T15:43:25;16.40;99.90
19152;DHT22;9708;53.114;9.388;2022-10-03T15:45:55;16.40;99.90
19152;DHT22;9708;53.114;9.388;2022-10-03T15:48:25;16.40;99.90
19152;DHT22;9708;53.114;9.388;2022-10-03T15:50:55;16.40;99.90
19152;DHT22;9708;53.114;9.388;2022-10-03T15:53:24;16.30;99.90
19152;DHT22;9708;53.114;9.388;2022-10-03T15:55:56;16.40;99.90
19152;DHT22;9708;53.114;9.388;2022-10-03T15:58:29;16.30;99.90
19152;DHT22;9708;53.114;9.388;2022-10-03T16:01:05;16.20;99.90
19152;DHT22;9708;53.114;9.388;2022-10-03T16:03:39;16.20;99.90
19152;DHT22;9708;53.114;9.388;2022-10-03T16:06:10;16.20;99.90
19152;DHT22;9708;53.114;9.388;2022-10-03T16:08:45;16.10;99.90
19152;DHT22;9708;53.114;9.388;2022-10-03T16:11:18;16.00;99.90
19152;DHT22;9708;53.114;9.388;2022-10-03T16:13:55;16.00;99.90
19152;DHT22;9708;53.114;9.388;2022-10-03T16:16:31;16.00;99.90
19152;DHT22;9708;53.114;9.388;2022-10-03T16:19:15;16.00;99.90
19152;DHT22;9708;53.114;9.388;2022-10-03T16:21:45;15.90;99.90
19152;DHT22;9708;53.114;9.388;2022-10-03T16:24:22;15.90;99.90
19152;DHT22;9708;53.114;9.388;2022-10-03T16:26:55;15.80;99.90
19152;DHT22;9708;53.114;9.388;2022-10-03T16:29:26;15.70;99.90
19152;DHT22;9708;53.114;9.388;2022-10-03T16:31:59;15.60;99.90
19152;DHT22;9708;53.114;9.388;2022-10-03T16:34:28;15.50;99.90
19152;DHT22;9708;53.114;9.388;2022-10-03T16:36:58;15.40;99.90
19152;DHT22;9708;53.114;9.388;2022-10-03T16:39:29;15.30;99.90
19152;DHT22;9708;53.114;9.388;2022-10-03T16:42:00;15.20;99.90
19152;DHT22;9708;53.114;9.388;2022-10-03T16:44:38;15.10;99.90
19152;DHT22;9708;53.114;9.388;2022-10-03T16:47:08;15.00;99.90
19152;DHT22;9708;53.114;9.388;2022-10-03T16:49:40;14.90;99.90
19152;DHT22;9708;53.114;9.388;2022-10-03T16:52:30;14.70;99.90
19152;DHT22;9708;53.114;9.388;2022-10-03T16:55:02;14.60;99.90
19152;DHT22;9708;53.114;9.388;2022-10-03T16:57:37;14.50;99.90
19152;DHT22;9708;53.114;9.388;2022-10-03T17:00:13;14.50;99.90
19152;DHT22;9708;53.114;9.388;2022-10-03T17:02:43;14.50;99.90
19152;DHT22;9708;53.114;9.388;2022-10-03T17:05:12;14.50;99.90
19152;DHT22;9708;53.114;9.388;2022-10-03T17:07:41;14.40;99.90
19152;DHT22;9708;53.114;9.388;2022-10-03T17:10:35;14.30;99.90
19152;DHT22;9708;53.114;9.388;2022-10-03T17:13:10;14.20;99.90
19152;DHT22;9708;53.114;9.388;2022-10-03T17:15:44;14.10;99.90
19152;DHT22;9708;53.114;9.388;2022-10-03T17:18:20;14.10;99.90
19152;DHT22;9708;53.114;9.388;2022-10-03T17:20:52;14.00;99.90
19152;DHT22;9708;53.114;9.388;2022-10-03T17:23:26;14.00;99.90
19152;DHT22;9708;53.114;9.388;2022-10-03T17:25:59;13.90;99.90
19152;DHT22;9708;53.114;9.388;2022-10-03T17:28:39;13.90;99.90
19152;DHT22;9708;53.114;9.388;2022-10-03T17:31:22;13.90;99.90
19152;DHT22;9708;53.114;9.388;2022-10-03T17:33:54;13.80;99.90
19152;DHT22;9708;53.114;9.388;2022-10-03T17:36:43;13.80;99.90
19152;DHT22;9708;53.114;9.388;2022-10-03T17:39:24;13.70;99.90
19152;DHT22;9708;53.114;9.388;2022-10-03T17:42:01;13.60;99.90
19152;DHT22;9708;53.114;9.388;2022-10-03T17:44:36;13.50;99.90
19152;DHT22;9708;53.114;9.388;2022-10-03T17:47:10;13.40;99.90
19152;DHT22;9708;53.114;9.388;2022-10-03T17:49:46;13.40;99.90
19152;DHT22;9708;53.114;9.388;2022-10-03T17:52:17;13.40;99.90
19152;DHT22;9708;53.114;9.388;2022-10-03T17:54:47;13.40;99.90
19152;DHT22;9708;53.114;9.388;2022-10-03T17:57:20;13.40;99.90
19152;DHT22;9708;53.114;9.388;2022-10-03T17:59:54;13.30;99.90
19152;DHT22;9708;53.114;9.388;2022-10-03T18:02:29;13.30;99.90
19152;DHT22;9708;53.114;9.388;2022-10-03T18:05:06;13.20;99.90
19152;DHT22;9708;53.114;9.388;2022-10-03T18:07:38;13.10;99.90
19152;DHT22;9708;53.114;9.388;2022-10-03T18:10:19;13.00;99.90
19152;DHT22;9708;53.114;9.388;2022-10-03T18:12:49;13.00;99.90
19152;DHT22;9708;53.114;9.388;2022-10-03T18:18:52;12.90;99.90
19152;DHT22;9708;53.114;9.388;2022-10-03T18:21:33;12.80;99.90
19152;DHT22;9708;53.114;9.388;2022-10-03T18:24:26;12.80;99.90
19152;DHT22;9708;53.114;9.388;2022-10-03T18:29:55;12.50;99.90
19152;DHT22;9708;53.114;9.388;2022-10-03T18:32:24;12.50;99.90
19152;DHT22;9708;53.114;9.388;2022-10-03T18:35:05;12.40;99.90
19152;DHT22;9708;53.114;9.388;2022-10-03T18:38:02;12.50;99.90
19152;DHT22;9708;53.114;9.388;2022-10-03T18:40:33;12.50;99.90
19152;DHT22;9708;53.114;9.388;2022-10-03T18:43:03;12.50;99.90
19152;DHT22;9708;53.114;9.388;2022-10-03T18:45:36;12.50;99.90
19152;DHT22;9708;53.114;9.388;2022-10-03T18:48:11;12.50;99.90
19152;DHT22;9708;53.114;9.388;2022-10-03T18:50:51;12.50;99.90
19152;DHT22;9708;53.114;9.388;2022-10-03T18:53:25;12.50;99.90
19152;DHT22;9708;53.114;9.388;2022-10-03T18:55:57;12.40;99.90
19152;DHT22;9708;53.114;9.388;2022-10-03T18:58:27;12.30;99.90
19152;DHT22;9708;53.114;9.388;2022-10-03T19:00:58;12.20;99.90
19152;DHT22;9708;53.114;9.388;2022-10-03T19:03:30;12.10;99.90
19152;DHT22;9708;53.114;9.388;2022-10-03T19:06:03;12.10;99.90
19152;DHT22;9708;53.114;9.388;2022-10-03T19:08:35;12.00;99.90
19152;DHT22;9708;53.114;9.388;2022-10-03T19:11:10;11.90;99.90
19152;DHT22;9708;53.114;9.388;2022-10-03T19:13:44;11.90;99.90
19152;DHT22;9708;53.114;9.388;2022-10-03T19:16:32;11.90;99.90
19152;DHT22;9708;53.114;9.388;2022-10-03T19:19:08;11.90;99.90
19152;DHT22;9708;53.114;9.388;2022-10-03T19:21:38;11.80;99.90
19152;DHT22;9708;53.114;9.388;2022-10-03T19:24:12;11.70;99.90
19152;DHT22;9708;53.114;9.388;2022-10-03T19:26:44;11.70;99.90
19152;DHT22;9708;53.114;9.388;2022-10-03T19:29:14;11.70;99.90
19152;DHT22;9708;53.114;9.388;2022-10-03T19:31:51;11.60;99.90
19152;DHT22;9708;53.114;9.388;2022-10-03T19:34:25;11.60;99.90
19152;DHT22;9708;53.114;9.388;2022-10-03T19:36:54;11.60;99.90
19152;DHT22;9708;53.114;9.388;2022-10-03T19:39:25;11.50;99.90
19152;DHT22;9708;53.114;9.388;2022-10-03T19:41:55;11.50;99.90
19152;DHT22;9708;53.114;9.388;2022-10-03T19:44:26;11.50;99.90
19152;DHT22;9708;53.114;9.388;2022-10-03T19:47:04;11.50;99.90
19152;DHT22;9708;53.114;9.388;2022-10-03T19:49:45;11.50;99.90
19152;DHT22;9708;53.114;9.388;2022-10-03T19:52:24;11.50;99.90
19152;DHT22;9708;53.114;9.388;2022-10-03T19:54:58;11.40;99.90
19152;DHT22;9708;53.114;9.388;2022-10-03T19:57:30;11.40;99.90
19152;DHT22;9708;53.114;9.388;2022-10-03T20:00:00;11.30;99.90
19152;DHT22;9708;53.114;9.388;2022-10-03T20:02:30;11.40;99.90
19152;DHT22;9708;53.114;9.388;2022-10-03T20:04:59;11.30;99.90
19152;DHT22;9708;53.114;9.388;2022-10-03T20:07:48;11.40;99.90